createdAt,value
2018-05-08T00:00:57.952Z,17.67
2018-05-08T00:01:57.957Z,17.68
2018-05-08T00:02:57.965Z,17.68
2018-05-08T00:03:57.967Z,17.52
2018-05-08T00:04:57.971Z,17.46
2018-05-08T00:05:57.976Z,17.42
2018-05-08T00:06:57.982Z,17.31
2018-05-08T00:07:57.987Z,17.33
2018-05-08T00:08:58.080Z,17.39
2018-05-08T00:09:57.997Z,17.39
2018-05-08T00:10:58.002Z,17.48
2018-05-08T00:11:58.006Z,17.45
2018-05-08T00:12:58.011Z,17.44
2018-05-08T00:13:58.016Z,17.46
2018-05-08T00:14:58.022Z,17.42
2018-05-08T00:15:58.024Z,17.45
2018-05-08T00:16:58.031Z,17.52
2018-05-08T00:17:58.036Z,17.52
2018-05-08T00:18:58.040Z,17.54
2018-05-08T00:19:58.044Z,17.46
2018-05-08T00:20:58.052Z,17.45
2018-05-08T00:21:58.055Z,17.39
2018-05-08T00:22:58.060Z,17.48
2018-05-08T00:23:58.065Z,17.44
2018-05-08T00:24:58.068Z,17.39
2018-05-08T00:25:58.075Z,17.44
2018-05-08T00:26:58.079Z,17.39
2018-05-08T00:27:58.084Z,17.29
2018-05-08T00:28:58.089Z,17.30
2018-05-08T00:29:58.094Z,17.23
2018-05-08T00:30:58.099Z,17.19
2018-05-08T00:31:58.104Z,17.24
2018-05-08T00:32:58.109Z,17.27
2018-05-08T00:33:58.113Z,17.33
2018-05-08T00:34:58.117Z,17.19
2018-05-08T00:35:58.121Z,17.19
2018-05-08T00:36:58.126Z,17.23
2018-05-08T00:37:58.132Z,17.22
2018-05-08T00:38:58.137Z,17.20
2018-05-08T00:39:58.140Z,17.11
2018-05-08T00:40:58.145Z,17.05
2018-05-08T00:41:58.154Z,17.06
2018-05-08T00:42:58.155Z,17.11
2018-05-08T00:43:58.159Z,17.16
2018-05-08T00:44:58.164Z,17.15
2018-05-08T00:45:58.169Z,17.16
2018-05-08T00:46:58.173Z,17.08
2018-05-08T00:47:58.178Z,17.04
2018-05-08T00:48:58.182Z,16.99
2018-05-08T00:49:58.187Z,17.05
2018-05-08T00:50:58.192Z,17.05
2018-05-08T00:51:58.197Z,17.06
2018-05-08T00:52:58.202Z,17.06
2018-05-08T00:53:58.206Z,17.06
2018-05-08T00:54:58.211Z,17.02
2018-05-08T00:55:58.214Z,16.94
2018-05-08T00:56:58.220Z,16.94
2018-05-08T00:57:58.224Z,16.84
2018-05-08T00:58:58.229Z,16.86
2018-05-08T00:59:58.233Z,16.84
2018-05-08T01:00:58.237Z,16.86
2018-05-08T01:01:58.243Z,16.84
2018-05-08T01:02:58.247Z,16.81
2018-05-08T01:03:58.248Z,16.83
2018-05-08T01:04:58.279Z,16.78
2018-05-08T01:05:58.261Z,16.86
2018-05-08T01:06:58.264Z,16.81
2018-05-08T01:07:58.268Z,16.83
2018-05-08T01:08:58.272Z,16.71
2018-05-08T01:09:58.275Z,16.71
2018-05-08T01:10:58.281Z,16.71
2018-05-08T01:11:58.286Z,16.74
2018-05-08T01:12:58.289Z,16.68
2018-05-08T01:13:58.294Z,16.64
2018-05-08T01:14:58.299Z,16.71
2018-05-08T01:15:58.302Z,16.83
2018-05-08T01:16:58.376Z,16.91
2018-05-08T01:17:58.311Z,16.99
2018-05-08T01:18:58.316Z,16.94
2018-05-08T01:19:58.321Z,17.05
2018-05-08T01:20:58.325Z,17.09
2018-05-08T01:21:58.327Z,17.02
2018-05-08T01:22:58.333Z,16.84
2018-05-08T01:23:58.336Z,16.86
2018-05-08T01:24:58.342Z,17.04
2018-05-08T01:25:58.347Z,16.96
2018-05-08T01:26:58.350Z,16.94
2018-05-08T01:27:58.356Z,16.99
2018-05-08T01:28:58.357Z,17.02
2018-05-08T01:29:58.366Z,16.97
2018-05-08T01:30:58.367Z,16.87
2018-05-08T01:31:58.370Z,16.86
2018-05-08T01:32:58.381Z,16.86
2018-05-08T01:33:58.388Z,16.83
2018-05-08T01:34:58.382Z,16.84
2018-05-08T01:35:58.391Z,16.86
2018-05-08T01:36:58.392Z,16.90
2018-05-08T01:37:58.396Z,16.87
2018-05-08T01:38:58.401Z,16.91
2018-05-08T01:39:58.404Z,16.90
2018-05-08T01:40:58.407Z,16.84
2018-05-08T01:41:58.418Z,16.76
2018-05-08T01:42:58.421Z,16.72
2018-05-08T01:43:58.422Z,16.69
2018-05-08T01:44:58.426Z,16.64
2018-05-08T01:45:58.429Z,16.61
2018-05-08T01:46:58.433Z,16.61
2018-05-08T01:47:58.440Z,16.69
2018-05-08T01:48:58.442Z,16.56
2018-05-08T01:49:58.446Z,16.56
2018-05-08T01:50:58.460Z,16.65
2018-05-08T01:51:58.454Z,16.53
2018-05-08T01:52:58.460Z,16.58
2018-05-08T01:53:58.466Z,16.58
2018-05-08T01:54:58.467Z,16.61
2018-05-08T01:55:58.472Z,16.51
2018-05-08T01:56:58.475Z,16.49
2018-05-08T01:57:58.479Z,16.46
2018-05-08T01:58:58.484Z,16.46
2018-05-08T01:59:58.487Z,16.43
2018-05-08T02:00:58.492Z,16.47
2018-05-08T02:01:58.497Z,16.53
2018-05-08T02:02:58.501Z,16.51
2018-05-08T02:03:58.503Z,16.47
2018-05-08T02:04:58.508Z,16.50
2018-05-08T02:05:58.511Z,16.36
2018-05-08T02:06:58.516Z,16.28
2018-05-08T02:07:58.520Z,16.43
2018-05-08T02:08:58.526Z,16.38
2018-05-08T02:09:58.529Z,16.38
2018-05-08T02:10:58.531Z,16.26
2018-05-08T02:11:58.534Z,16.32
2018-05-08T02:12:58.540Z,16.23
2018-05-08T02:13:58.544Z,16.13
2018-05-08T02:14:58.548Z,16.15
2018-05-08T02:15:58.552Z,16.12
2018-05-08T02:16:58.556Z,16.05
2018-05-08T02:17:58.561Z,16.08
2018-05-08T02:18:58.564Z,16.24
2018-05-08T02:19:58.569Z,16.20
2018-05-08T02:20:58.572Z,16.09
2018-05-08T02:21:58.576Z,16.08
2018-05-08T02:22:58.580Z,16.13
2018-05-08T02:23:58.587Z,16.08
2018-05-08T02:24:58.619Z,16.02
2018-05-08T02:25:58.624Z,16.05
2018-05-08T02:26:58.595Z,16.01
2018-05-08T02:27:58.599Z,16.04
2018-05-08T02:28:58.603Z,15.98
2018-05-08T02:29:58.607Z,16.13
2018-05-08T02:30:58.705Z,16.15
2018-05-08T02:31:58.615Z,16.09
2018-05-08T02:32:58.619Z,16.12
2018-05-08T02:33:58.626Z,16.10
2018-05-08T02:34:58.626Z,16.10
2018-05-08T02:35:58.630Z,16.23
2018-05-08T02:36:58.634Z,16.33
2018-05-08T02:37:58.638Z,16.12
2018-05-08T02:38:58.643Z,16.21
2018-05-08T02:39:58.645Z,16.16
2018-05-08T02:40:58.649Z,16.12
2018-05-08T02:41:58.660Z,16.17
2018-05-08T02:42:58.661Z,16.13
2018-05-08T02:43:58.661Z,16.13
2018-05-08T02:44:58.664Z,16.12
2018-05-08T02:45:58.669Z,16.12
2018-05-08T02:46:58.674Z,16.13
2018-05-08T02:47:58.674Z,16.24
2018-05-08T02:48:58.739Z,16.05
2018-05-08T02:49:58.685Z,16.13
2018-05-08T02:50:58.687Z,16.09
2018-05-08T02:51:58.690Z,16.08
2018-05-08T02:52:58.694Z,16.01
2018-05-08T02:53:58.702Z,15.97
2018-05-08T02:54:58.707Z,15.92
2018-05-08T02:55:58.706Z,15.97
2018-05-08T02:56:58.714Z,16.08
2018-05-08T02:57:58.714Z,16.08
2018-05-08T02:58:58.717Z,15.94
2018-05-08T02:59:58.721Z,15.88
2018-05-08T03:00:58.723Z,15.90
2018-05-08T03:01:58.748Z,15.86
2018-05-08T03:02:58.732Z,15.84
2018-05-08T03:03:58.734Z,15.83
2018-05-08T03:04:58.739Z,16.01
2018-05-08T03:05:58.743Z,16.09
2018-05-08T03:06:58.747Z,16.09
2018-05-08T03:07:58.751Z,16.12
2018-05-08T03:08:58.753Z,16.12
2018-05-08T03:09:58.759Z,16.01
2018-05-08T03:10:58.761Z,16.10
2018-05-08T03:11:58.764Z,15.94
2018-05-08T03:12:58.768Z,15.91
2018-05-08T03:13:58.772Z,16.05
2018-05-08T03:14:58.775Z,16.05
2018-05-08T03:15:58.782Z,16.05
2018-05-08T03:16:58.781Z,16.04
2018-05-08T03:17:58.786Z,15.90
2018-05-08T03:18:58.793Z,15.88
2018-05-08T03:19:58.792Z,15.91
2018-05-08T03:20:58.797Z,15.83
2018-05-08T03:21:58.801Z,15.90
2018-05-08T03:22:58.804Z,15.91
2018-05-08T03:23:58.807Z,16.01
2018-05-08T03:24:58.815Z,16.01
2018-05-08T03:25:58.815Z,16.01
2018-05-08T03:26:58.818Z,15.92
2018-05-08T03:27:58.835Z,15.83
2018-05-08T03:28:58.825Z,15.86
2018-05-08T03:29:58.829Z,15.83
2018-05-08T03:30:58.833Z,15.79
2018-05-08T03:31:58.835Z,15.67
2018-05-08T03:32:58.840Z,15.73
2018-05-08T03:33:58.843Z,15.67
2018-05-08T03:34:58.846Z,15.76
2018-05-08T03:35:58.851Z,15.82
2018-05-08T03:36:58.853Z,15.94
2018-05-08T03:37:58.857Z,15.84
2018-05-08T03:38:58.859Z,15.75
2018-05-08T03:39:58.865Z,15.82
2018-05-08T03:40:58.867Z,15.77
2018-05-08T03:41:58.871Z,15.72
2018-05-08T03:42:58.874Z,15.72
2018-05-08T03:43:58.877Z,15.70
2018-05-08T03:44:58.881Z,15.62
2018-05-08T03:45:58.884Z,15.62
2018-05-08T03:46:58.887Z,15.55
2018-05-08T03:47:58.890Z,15.58
2018-05-08T03:48:58.892Z,15.55
2018-05-08T03:49:58.899Z,15.68
2018-05-08T03:50:58.900Z,15.80
2018-05-08T03:51:58.903Z,15.88
2018-05-08T03:52:58.908Z,15.82
2018-05-08T03:53:58.911Z,15.75
2018-05-08T03:54:58.915Z,15.76
2018-05-08T03:55:58.917Z,15.72
2018-05-08T03:56:58.920Z,15.61
2018-05-08T03:57:58.924Z,15.62
2018-05-08T03:58:58.927Z,15.52
2018-05-08T03:59:58.930Z,15.58
2018-05-08T04:00:58.933Z,15.59
2018-05-08T04:01:58.938Z,15.55
2018-05-08T04:02:58.942Z,15.68
2018-05-08T04:03:58.942Z,15.64
2018-05-08T04:04:58.948Z,15.59
2018-05-08T04:05:58.950Z,15.64
2018-05-08T04:06:58.955Z,15.62
2018-05-08T04:07:58.956Z,15.67
2018-05-08T04:08:58.960Z,15.59
2018-05-08T04:09:58.964Z,15.65
2018-05-08T04:10:58.968Z,15.62
2018-05-08T04:11:58.974Z,15.62
2018-05-08T04:12:58.974Z,15.64
2018-05-08T04:13:58.977Z,15.62
2018-05-08T04:14:59.030Z,15.51
2018-05-08T04:15:58.983Z,15.57
2018-05-08T04:16:58.986Z,15.44
2018-05-08T04:17:58.997Z,15.40
2018-05-08T04:18:58.992Z,15.39
2018-05-08T04:19:58.996Z,15.27
2018-05-08T04:20:59.050Z,15.27
2018-05-08T04:21:59.003Z,15.31
2018-05-08T04:22:59.006Z,15.22
2018-05-08T04:23:59.008Z,15.36
2018-05-08T04:24:59.012Z,15.35
2018-05-08T04:25:59.015Z,15.24
2018-05-08T04:26:59.020Z,15.28
2018-05-08T04:27:59.023Z,15.29
2018-05-08T04:28:59.026Z,15.29
2018-05-08T04:29:59.028Z,15.24
2018-05-08T04:30:59.031Z,15.25
2018-05-08T04:31:59.034Z,15.25
2018-05-08T04:32:59.038Z,15.21
2018-05-08T04:33:59.042Z,15.19
2018-05-08T04:34:59.044Z,15.14
2018-05-08T04:35:59.047Z,15.06
2018-05-08T04:36:59.051Z,15.03
2018-05-08T04:37:59.054Z,15.04
2018-05-08T04:38:59.057Z,15.06
2018-05-08T04:39:59.059Z,15.04
2018-05-08T04:40:59.064Z,15.06
2018-05-08T04:41:59.066Z,14.99
2018-05-08T04:42:59.071Z,14.97
2018-05-08T04:43:59.073Z,14.97
2018-05-08T04:44:59.076Z,15.07
2018-05-08T04:45:59.080Z,14.99
2018-05-08T04:46:59.084Z,14.92
2018-05-08T04:47:59.086Z,14.88
2018-05-08T04:48:59.090Z,14.99
2018-05-08T04:49:59.093Z,14.94
2018-05-08T04:50:59.097Z,14.92
2018-05-08T04:51:59.098Z,15.00
2018-05-08T04:52:59.108Z,14.99
2018-05-08T04:53:59.105Z,14.88
2018-05-08T04:54:59.110Z,15.07
2018-05-08T04:55:59.113Z,15.28
2018-05-08T04:56:59.115Z,15.35
2018-05-08T04:57:59.119Z,15.46
2018-05-08T04:58:59.122Z,15.43
2018-05-08T04:59:59.125Z,15.40
2018-05-08T05:00:59.132Z,15.59
2018-05-08T05:01:59.132Z,15.43
2018-05-08T05:02:59.138Z,15.40
2018-05-08T05:03:59.137Z,15.61
2018-05-08T05:04:59.144Z,15.58
2018-05-08T05:05:59.145Z,15.67
2018-05-08T05:06:59.171Z,15.70
2018-05-08T05:07:59.152Z,15.67
2018-05-08T05:08:59.154Z,15.68
2018-05-08T05:09:59.157Z,15.80
2018-05-08T05:10:59.187Z,15.88
2018-05-08T05:11:59.164Z,15.86
2018-05-08T05:12:59.182Z,15.86
2018-05-08T05:13:59.171Z,15.92
2018-05-08T05:14:59.175Z,15.92
2018-05-08T05:15:59.177Z,15.95
2018-05-08T05:16:59.184Z,16.04
2018-05-08T05:17:59.183Z,16.12
2018-05-08T05:18:59.188Z,16.13
2018-05-08T05:19:59.195Z,16.16
2018-05-08T05:20:59.194Z,16.13
2018-05-08T05:21:59.203Z,16.16
2018-05-08T05:22:59.201Z,16.12
2018-05-08T05:23:59.205Z,16.13
2018-05-08T05:24:59.209Z,16.15
2018-05-08T05:25:59.212Z,16.15
2018-05-08T05:26:59.220Z,16.36
2018-05-08T05:27:59.218Z,16.38
2018-05-08T05:28:59.223Z,16.36
2018-05-08T05:29:59.227Z,16.42
2018-05-08T05:30:59.234Z,16.43
2018-05-08T05:31:59.237Z,16.49
2018-05-08T05:32:59.237Z,16.43
2018-05-08T05:33:59.241Z,16.54
2018-05-08T05:34:59.245Z,16.60
2018-05-08T05:35:59.246Z,16.58
2018-05-08T05:36:59.255Z,16.53
2018-05-08T05:37:59.255Z,16.58
2018-05-08T05:38:59.263Z,16.68
2018-05-08T05:39:59.262Z,16.68
2018-05-08T05:40:59.266Z,16.71
2018-05-08T05:41:59.274Z,16.84
2018-05-08T05:42:59.274Z,16.84
2018-05-08T05:43:59.277Z,16.91
2018-05-08T05:44:59.282Z,16.86
2018-05-08T05:45:59.285Z,16.96
2018-05-08T05:46:59.289Z,17.01
2018-05-08T05:47:59.292Z,17.02
2018-05-08T05:48:59.296Z,17.01
2018-05-08T05:49:59.301Z,17.02
2018-05-08T05:50:59.305Z,17.06
2018-05-08T05:51:59.308Z,17.11
2018-05-08T05:52:59.313Z,17.12
2018-05-08T05:53:59.316Z,17.06
2018-05-08T05:54:59.321Z,17.09
2018-05-08T05:55:59.324Z,17.14
2018-05-08T05:56:59.332Z,17.16
2018-05-08T05:57:59.333Z,17.23
2018-05-08T05:58:59.336Z,17.29
2018-05-08T05:59:59.374Z,17.31
2018-05-08T06:00:59.344Z,17.42
2018-05-08T06:01:59.347Z,17.42
2018-05-08T06:02:59.352Z,17.49
2018-05-08T06:03:59.356Z,17.44
2018-05-08T06:04:59.360Z,17.48
2018-05-08T06:05:59.365Z,17.44
2018-05-08T06:06:59.367Z,17.49
2018-05-08T06:07:59.372Z,17.52
2018-05-08T06:08:59.376Z,17.41
2018-05-08T06:09:59.381Z,17.44
2018-05-08T06:10:59.386Z,17.48
2018-05-08T06:11:59.403Z,17.60
2018-05-08T06:12:59.394Z,17.67
2018-05-08T06:13:59.398Z,17.76
2018-05-08T06:14:59.407Z,17.83
2018-05-08T06:15:59.406Z,17.82
2018-05-08T06:16:59.411Z,17.82
2018-05-08T06:17:59.416Z,17.83
2018-05-08T06:18:59.419Z,17.83
2018-05-08T06:19:59.424Z,17.92
2018-05-08T06:20:59.429Z,17.87
2018-05-08T06:21:59.431Z,17.90
2018-05-08T06:22:59.437Z,18.00
2018-05-08T06:23:59.442Z,17.95
2018-05-08T06:24:59.446Z,18.00
2018-05-08T06:25:59.451Z,18.05
2018-05-08T06:26:59.456Z,18.05
2018-05-08T06:27:59.459Z,18.16
2018-05-08T06:28:59.464Z,18.18
2018-05-08T06:29:59.472Z,18.16
2018-05-08T06:30:59.474Z,18.10
2018-05-08T06:31:59.480Z,18.26
2018-05-08T06:32:59.484Z,18.23
2018-05-08T06:33:59.489Z,18.22
2018-05-08T06:34:59.498Z,18.25
2018-05-08T06:35:59.497Z,18.29
2018-05-08T06:36:59.500Z,18.34
2018-05-08T06:37:59.507Z,18.35
2018-05-08T06:38:59.548Z,18.43
2018-05-08T06:39:59.599Z,18.41
2018-05-08T06:40:59.521Z,18.38
2018-05-08T06:41:59.526Z,18.40
2018-05-08T06:42:59.531Z,18.41
2018-05-08T06:43:59.536Z,18.52
2018-05-08T06:44:59.542Z,18.56
2018-05-08T06:45:59.546Z,18.55
2018-05-08T06:46:59.553Z,18.68
2018-05-08T06:47:59.555Z,18.74
2018-05-08T06:48:59.560Z,18.84
2018-05-08T06:49:59.566Z,18.83
2018-05-08T06:50:59.572Z,18.89
2018-05-08T06:51:59.576Z,18.81
2018-05-08T06:52:59.581Z,18.80
2018-05-08T06:53:59.586Z,18.84
2018-05-08T06:54:59.616Z,18.84
2018-05-08T06:55:59.601Z,18.95
2018-05-08T06:56:59.602Z,19.00
2018-05-08T06:57:59.606Z,19.02
2018-05-08T06:58:59.610Z,18.95
2018-05-08T06:59:59.616Z,19.04
2018-05-08T07:00:59.623Z,19.12
2018-05-08T07:01:59.627Z,19.08
2018-05-08T07:02:59.633Z,19.08
2018-05-08T07:03:59.638Z,19.27
2018-05-08T07:04:59.644Z,19.33
2018-05-08T07:05:59.648Z,19.30
2018-05-08T07:06:59.659Z,19.44
2018-05-08T07:07:59.660Z,19.45
2018-05-08T07:08:59.664Z,19.51
2018-05-08T07:09:59.670Z,19.59
2018-05-08T07:10:59.676Z,19.56
2018-05-08T07:11:59.681Z,19.52
2018-05-08T07:12:59.685Z,19.56
2018-05-08T07:13:59.692Z,19.48
2018-05-08T07:14:59.698Z,19.59
2018-05-08T07:15:59.853Z,19.63
2018-05-08T07:16:59.707Z,19.71
2018-05-08T07:17:59.719Z,19.82
2018-05-08T07:18:59.721Z,19.71
2018-05-08T07:19:59.724Z,19.71
2018-05-08T07:20:59.731Z,19.67
2018-05-08T07:21:59.737Z,19.77
2018-05-08T07:22:59.742Z,19.89
2018-05-08T07:23:59.806Z,19.91
2018-05-08T07:24:59.753Z,20.03
2018-05-08T07:25:59.760Z,20.06
2018-05-08T07:26:59.765Z,20.03
2018-05-08T07:27:59.771Z,20.03
2018-05-08T07:28:59.777Z,20.16
2018-05-08T07:29:59.798Z,20.11
2018-05-08T07:30:59.813Z,20.22
2018-05-08T07:31:59.795Z,20.26
2018-05-08T07:32:59.801Z,20.47
2018-05-08T07:33:59.807Z,20.41
2018-05-08T07:34:59.812Z,20.41
2018-05-08T07:35:59.818Z,20.50
2018-05-08T07:36:59.825Z,20.51
2018-05-08T07:37:59.832Z,20.47
2018-05-08T07:38:59.836Z,20.58
2018-05-08T07:39:59.846Z,20.65
2018-05-08T07:40:59.851Z,20.70
2018-05-08T07:41:59.857Z,20.67
2018-05-08T07:42:59.862Z,20.78
2018-05-08T07:43:59.866Z,20.88
2018-05-08T07:44:59.875Z,20.87
2018-05-08T07:45:59.880Z,20.90
2018-05-08T07:46:59.887Z,20.88
2018-05-08T07:47:59.892Z,20.93
2018-05-08T07:48:59.899Z,21.17
2018-05-08T07:49:59.906Z,21.21
2018-05-08T07:50:59.913Z,21.42
2018-05-08T07:51:59.923Z,21.72
2018-05-08T07:52:59.926Z,22.13
2018-05-08T07:53:59.934Z,22.69
2018-05-08T07:54:59.941Z,23.61
2018-05-08T07:55:59.948Z,24.70
2018-05-08T07:56:59.958Z,25.54
2018-05-08T07:57:59.967Z,25.96
2018-05-08T07:58:59.978Z,26.13
2018-05-08T07:59:59.987Z,26.05
2018-05-08T08:00:59.998Z,26.78
2018-05-08T08:02:00.010Z,27.22
2018-05-08T08:03:00.022Z,27.51
2018-05-08T08:04:00.033Z,27.44
2018-05-08T08:05:00.046Z,26.84
2018-05-08T08:06:00.058Z,26.77
2018-05-08T08:07:00.071Z,27.54
2018-05-08T08:08:00.084Z,28.12
2018-05-08T08:09:00.098Z,28.26
2018-05-08T08:10:00.113Z,27.98
2018-05-08T08:11:00.126Z,28.70
2018-05-08T08:12:00.138Z,28.70
2018-05-08T08:13:00.153Z,28.86
2018-05-08T08:14:00.167Z,29.08
2018-05-08T08:15:00.182Z,29.14
2018-05-08T08:16:00.195Z,29.02
2018-05-08T08:17:00.215Z,29.61
2018-05-08T08:18:00.226Z,28.96
2018-05-08T08:19:00.241Z,28.64
2018-05-08T08:20:00.255Z,28.74
2018-05-08T08:21:00.271Z,28.97
2018-05-08T08:22:00.287Z,29.20
2018-05-08T08:23:00.303Z,28.67
2018-05-08T08:24:00.317Z,28.89
2018-05-08T08:25:00.335Z,28.56
2018-05-08T08:26:00.354Z,28.64
2018-05-08T08:27:00.367Z,28.62
2018-05-08T08:28:00.383Z,27.80
2018-05-08T08:29:00.401Z,28.33
2018-05-08T08:30:00.416Z,28.57
2018-05-08T08:31:00.436Z,28.94
2018-05-08T08:32:00.449Z,29.69
2018-05-08T08:33:00.472Z,28.85
2018-05-08T08:34:00.482Z,28.81
2018-05-08T08:35:00.500Z,29.57
2018-05-08T08:36:00.525Z,30.32
2018-05-08T08:37:00.532Z,30.63
2018-05-08T08:38:00.551Z,29.53
2018-05-08T08:39:00.570Z,29.49
2018-05-08T08:40:00.585Z,29.31
2018-05-08T08:41:00.611Z,29.79
2018-05-08T08:42:00.620Z,29.19
2018-05-08T08:43:00.639Z,28.69
2018-05-08T08:44:00.656Z,27.83
2018-05-08T08:45:00.674Z,28.05
2018-05-08T08:46:00.691Z,28.27
2018-05-08T08:47:00.709Z,29.07
2018-05-08T08:48:00.726Z,29.38
2018-05-08T08:49:00.745Z,28.93
2018-05-08T08:50:00.763Z,29.04
2018-05-08T08:51:00.781Z,28.59
2018-05-08T08:52:00.798Z,29.08
2018-05-08T08:53:00.816Z,29.34
2018-05-08T08:54:00.835Z,29.68
2018-05-08T08:55:00.854Z,29.56
2018-05-08T08:56:00.917Z,28.45
2018-05-08T08:57:00.890Z,28.44
2018-05-08T08:58:00.908Z,28.79
2018-05-08T08:59:00.932Z,29.54
2018-05-08T09:00:00.944Z,29.27
2018-05-08T09:01:00.962Z,29.60
2018-05-08T09:02:00.980Z,30.21
2018-05-08T09:03:00.998Z,30.10
2018-05-08T09:04:01.095Z,29.82
2018-05-08T09:05:01.034Z,30.05
2018-05-08T09:06:01.054Z,30.68
2018-05-08T09:07:01.070Z,30.02
2018-05-08T09:08:01.088Z,29.65
2018-05-08T09:09:01.105Z,29.50
2018-05-08T09:10:01.127Z,28.76
2018-05-08T09:11:01.143Z,29.14
2018-05-08T09:12:01.159Z,29.56
2018-05-08T09:13:01.183Z,30.66
2018-05-08T09:14:01.196Z,31.05
2018-05-08T09:15:01.216Z,31.44
2018-05-08T09:16:01.234Z,31.29
2018-05-08T09:17:01.250Z,30.32
2018-05-08T09:18:01.268Z,30.09
2018-05-08T09:19:01.287Z,29.84
2018-05-08T09:20:01.304Z,29.41
2018-05-08T09:21:01.322Z,29.72
2018-05-08T09:22:01.343Z,30.47
2018-05-08T09:23:01.359Z,30.47
2018-05-08T09:24:01.380Z,31.17
2018-05-08T09:25:01.397Z,31.44
2018-05-08T09:26:01.414Z,31.17
2018-05-08T09:27:01.433Z,31.33
2018-05-08T09:28:01.450Z,30.23
2018-05-08T09:29:01.469Z,29.12
2018-05-08T09:30:01.487Z,28.49
2018-05-08T09:31:01.507Z,28.42
2018-05-08T09:32:01.524Z,28.57
2018-05-08T09:33:01.543Z,29.12
2018-05-08T09:34:01.567Z,29.35
2018-05-08T09:35:01.581Z,30.02
2018-05-08T09:36:01.597Z,30.73
2018-05-08T09:37:01.621Z,31.46
2018-05-08T09:38:01.635Z,32.08
2018-05-08T09:39:01.659Z,32.70
2018-05-08T09:40:01.671Z,32.87
2018-05-08T09:41:01.725Z,33.40
2018-05-08T09:42:01.710Z,32.67
2018-05-08T09:43:01.728Z,31.87
2018-05-08T09:44:01.746Z,32.43
2018-05-08T09:45:01.764Z,32.41
2018-05-08T09:46:01.784Z,32.96
2018-05-08T09:47:01.803Z,32.49
2018-05-08T09:48:01.821Z,31.69
2018-05-08T09:49:01.916Z,31.12
2018-05-08T09:50:01.859Z,30.30
2018-05-08T09:51:01.879Z,29.90
2018-05-08T09:52:01.898Z,29.51
2018-05-08T09:53:01.916Z,29.75
2018-05-08T09:54:01.952Z,30.08
2018-05-08T09:55:01.953Z,30.66
2018-05-08T09:56:01.977Z,31.46
2018-05-08T09:57:01.990Z,31.65
2018-05-08T09:58:02.010Z,31.94
2018-05-08T09:59:02.028Z,31.43
2018-05-08T10:00:02.046Z,31.42
2018-05-08T10:01:02.065Z,30.59
2018-05-08T10:02:02.083Z,31.25
2018-05-08T10:03:02.101Z,30.77
2018-05-08T10:04:02.120Z,31.00
2018-05-08T10:05:02.139Z,31.21
2018-05-08T10:06:02.254Z,30.94
2018-05-08T10:07:02.177Z,31.27
2018-05-08T10:08:02.193Z,30.81
2018-05-08T10:09:02.213Z,30.83
2018-05-08T10:10:02.234Z,30.77
2018-05-08T10:11:02.250Z,30.47
2018-05-08T10:12:02.268Z,29.72
2018-05-08T10:13:02.285Z,29.91
2018-05-08T10:14:02.304Z,30.80
2018-05-08T10:15:02.325Z,31.43
2018-05-08T10:16:02.340Z,31.28
2018-05-08T10:17:02.358Z,31.37
2018-05-08T10:18:02.378Z,30.50
2018-05-08T10:19:02.397Z,30.94
2018-05-08T10:20:02.412Z,31.49
2018-05-08T10:21:02.431Z,31.54
2018-05-08T10:22:02.449Z,30.91
2018-05-08T10:23:02.469Z,31.54
2018-05-08T10:24:02.484Z,31.70
2018-05-08T10:25:02.502Z,32.29
2018-05-08T10:26:02.522Z,32.45
2018-05-08T10:27:02.538Z,31.76
2018-05-08T10:28:02.555Z,31.36
2018-05-08T10:29:02.573Z,31.17
2018-05-08T10:30:02.592Z,30.78
2018-05-08T10:31:02.608Z,30.81
2018-05-08T10:32:02.629Z,30.47
2018-05-08T10:33:02.731Z,30.99
2018-05-08T10:34:02.662Z,31.39
2018-05-08T10:35:02.684Z,31.66
2018-05-08T10:36:02.695Z,31.18
2018-05-08T10:37:02.715Z,30.37
2018-05-08T10:38:02.731Z,29.75
2018-05-08T10:39:02.749Z,29.61
2018-05-08T10:40:02.765Z,29.82
2018-05-08T10:41:02.782Z,30.16
2018-05-08T10:42:02.802Z,30.06
2018-05-08T10:43:02.817Z,30.06
2018-05-08T10:44:02.834Z,29.98
2018-05-08T10:45:02.851Z,29.13
2018-05-08T10:46:02.868Z,29.16
2018-05-08T10:47:02.887Z,29.24
2018-05-08T10:48:02.905Z,29.63
2018-05-08T10:49:02.920Z,29.47
2018-05-08T10:50:02.937Z,29.61
2018-05-08T10:51:02.953Z,29.65
2018-05-08T10:52:02.969Z,30.57
2018-05-08T10:53:02.987Z,30.46
2018-05-08T10:54:03.003Z,30.44
2018-05-08T10:55:03.021Z,30.37
2018-05-08T10:56:03.036Z,30.59
2018-05-08T10:57:03.052Z,30.65
2018-05-08T10:58:03.069Z,30.61
2018-05-08T10:59:03.085Z,30.61
2018-05-08T11:00:03.103Z,30.87
2018-05-08T11:01:03.117Z,30.68
2018-05-08T11:02:03.133Z,31.25
2018-05-08T11:03:03.149Z,31.27
2018-05-08T11:04:03.164Z,31.51
2018-05-08T11:05:03.184Z,31.12
2018-05-08T11:06:03.201Z,30.50
2018-05-08T11:07:03.215Z,30.08
2018-05-08T11:08:03.228Z,29.39
2018-05-08T11:09:03.244Z,28.78
2018-05-08T11:10:03.261Z,28.78
2018-05-08T11:11:03.276Z,28.30
2018-05-08T11:12:03.290Z,28.33
2018-05-08T11:13:03.308Z,28.23
2018-05-08T11:14:03.686Z,28.19
2018-05-08T11:15:03.336Z,28.07
2018-05-08T11:16:03.351Z,27.85
2018-05-08T11:17:03.366Z,27.85
2018-05-08T11:18:03.454Z,27.82
2018-05-08T11:19:03.395Z,27.85
2018-05-08T11:20:03.409Z,27.65
2018-05-08T11:21:03.423Z,27.47
2018-05-08T11:22:03.438Z,27.33
2018-05-08T11:23:03.455Z,27.26
2018-05-08T11:24:03.467Z,27.37
2018-05-08T11:25:03.479Z,27.71
2018-05-08T11:26:03.493Z,27.90
2018-05-08T11:27:03.507Z,27.90
2018-05-08T11:28:03.519Z,28.15
2018-05-08T11:29:03.532Z,28.05
2018-05-08T11:30:03.546Z,28.01
2018-05-08T11:31:03.561Z,27.75
2018-05-08T11:32:03.574Z,27.98
2018-05-08T11:33:03.584Z,27.83
2018-05-08T11:34:03.597Z,27.78
2018-05-08T11:35:03.610Z,27.78
2018-05-08T11:36:03.620Z,27.39
2018-05-08T11:37:03.636Z,27.20
2018-05-08T11:38:03.647Z,27.33
2018-05-08T11:39:03.666Z,27.15
2018-05-08T11:40:03.674Z,27.32
2018-05-08T11:41:03.685Z,27.29
2018-05-08T11:42:03.697Z,27.49
2018-05-08T11:43:03.709Z,27.39
2018-05-08T11:44:03.721Z,27.49
2018-05-08T11:45:03.733Z,27.33
2018-05-08T11:46:03.745Z,27.30
2018-05-08T11:47:03.764Z,27.18
2018-05-08T11:48:03.769Z,27.32
2018-05-08T11:49:03.781Z,27.30
2018-05-08T11:50:03.816Z,27.30
2018-05-08T11:51:03.805Z,27.11
2018-05-08T11:52:03.816Z,27.12
2018-05-08T11:53:03.833Z,27.26
2018-05-08T11:54:03.841Z,27.08
2018-05-08T11:55:03.853Z,27.11
2018-05-08T11:56:03.867Z,27.20
2018-05-08T11:57:03.877Z,27.14
2018-05-08T11:58:03.888Z,27.25
2018-05-08T11:59:03.901Z,27.30
2018-05-08T12:00:03.910Z,27.30
2018-05-08T12:01:04.098Z,27.32
2018-05-08T12:02:03.934Z,27.35
2018-05-08T12:03:03.945Z,27.22
2018-05-08T12:04:03.956Z,27.49
2018-05-08T12:05:03.968Z,27.55
2018-05-08T12:06:03.980Z,27.67
2018-05-08T12:07:03.991Z,27.71
2018-05-08T12:08:04.001Z,27.68
2018-05-08T12:09:04.046Z,27.74
2018-05-08T12:10:04.025Z,27.74
2018-05-08T12:11:04.040Z,27.78
2018-05-08T12:12:04.049Z,27.74
2018-05-08T12:13:04.060Z,27.67
2018-05-08T12:14:04.071Z,27.42
2018-05-08T12:15:04.083Z,27.35
2018-05-08T12:16:04.094Z,27.32
2018-05-08T12:17:04.112Z,27.40
2018-05-08T12:18:04.116Z,27.35
2018-05-08T12:19:04.128Z,27.39
2018-05-08T12:20:04.138Z,27.26
2018-05-08T12:21:04.149Z,27.30
2018-05-08T12:22:04.160Z,27.39
2018-05-08T12:23:04.172Z,27.44
2018-05-08T12:24:04.183Z,27.33
2018-05-08T12:25:04.195Z,27.40
2018-05-08T12:26:04.205Z,27.36
2018-05-08T12:27:04.217Z,27.47
2018-05-08T12:28:04.227Z,27.30
2018-05-08T12:29:04.241Z,27.30
2018-05-08T12:30:04.250Z,27.27
2018-05-08T12:31:04.262Z,27.21
2018-05-08T12:32:04.272Z,27.25
2018-05-08T12:33:04.284Z,27.39
2018-05-08T12:34:04.296Z,27.27
2018-05-08T12:35:04.306Z,27.33
2018-05-08T12:36:04.323Z,27.45
2018-05-08T12:37:04.327Z,27.64
2018-05-08T12:38:04.338Z,27.64
2018-05-08T12:39:04.349Z,27.74
2018-05-08T12:40:04.360Z,27.80
2018-05-08T12:41:04.370Z,27.86
2018-05-08T12:42:04.402Z,27.85
2018-05-08T12:43:04.393Z,27.87
2018-05-08T12:44:04.404Z,27.93
2018-05-08T12:45:04.415Z,27.95
2018-05-08T12:46:04.426Z,28.01
2018-05-08T12:47:04.437Z,28.23
2018-05-08T12:48:04.448Z,28.08
2018-05-08T12:49:04.458Z,28.20
2018-05-08T12:50:04.470Z,28.22
2018-05-08T12:51:04.481Z,27.98
2018-05-08T12:52:04.493Z,27.98
2018-05-08T12:53:04.505Z,27.93